Time;durP1;ratioP1;P1;durP2;ratioP2;P2;SDS_P1;SDS_P2;PMS_P1;PMS_P2;Temp;Humidity;BMP_temperature;BMP_pressure;BME280_temperature;BME280_humidity;BME280_pressure;Samples;Min_cycle;Max_cycle;Signal;HPM_P1;HPM_P2
2022/11/17 00:02:55;;;;;;;32.42;10.00;;;17.00;99.90;;;;;;4991382;28;20041;-69
2022/11/17 00:06:06;;;;;;;23.63;9.63;;;17.00;99.90;;;;;;4991468;28;20065;-69
2022/11/17 00:09:16;;;;;;;30.20;10.07;;;17.00;99.90;;;;;;4991785;28;20049;-69
2022/11/17 00:15:43;;;;;;;32.53;10.45;;;16.90;99.90;;;;;;4990692;28;20061;-69
2022/11/17 00:22:10;;;;;;;29.00;10.35;;;16.80;99.90;;;;;;4991530;28;20042;-69
2022/11/17 00:25:13;;;;;;;26.88;11.82;;;16.70;99.90;;;;;;4991367;28;20042;-69
2022/11/17 00:28:17;;;;;;;26.92;11.07;;;16.70;99.90;;;;;;4991523;28;20050;-69
2022/11/17 00:34:46;;;;;;;20.13;9.38;;;16.60;99.90;;;;;;4993250;28;20053;-69
2022/11/17 00:41:12;;;;;;;21.73;7.63;;;16.50;99.90;;;;;;4995364;28;20050;-70
2022/11/17 00:44:16;;;;;;;24.70;7.78;;;16.50;99.90;;;;;;4994856;28;20045;-69
2022/11/17 00:47:21;;;;;;;22.13;7.80;;;16.40;99.90;;;;;;4995007;28;20057;-69
2022/11/17 00:50:25;;;;;;;23.08;8.45;;;16.40;99.90;;;;;;4994777;28;20075;-69
2022/11/17 00:53:29;;;;;;;24.95;8.10;;;16.40;99.90;;;;;;4994895;28;20042;-69
2022/11/17 00:56:33;;;;;;;28.60;8.98;;;16.40;99.90;;;;;;4994634;28;20076;-69
2022/11/17 00:59:37;;;;;;;20.92;8.38;;;16.40;99.90;;;;;;4994528;28;20042;-69
2022/11/17 01:02:41;;;;;;;19.77;8.60;;;16.50;99.90;;;;;;4994681;28;20525;-70
2022/11/17 01:05:45;;;;;;;24.85;7.50;;;16.40;99.90;;;;;;4994602;28;20037;-69
2022/11/17 01:08:51;;;;;;;23.50;7.47;;;16.50;99.90;;;;;;4993746;28;20161;-69
2022/11/17 01:11:55;;;;;;;19.52;6.75;;;16.50;99.90;;;;;;4994262;28;20113;-69
2022/11/17 01:14:59;;;;;;;19.02;7.20;;;16.40;99.90;;;;;;4994377;28;20049;-69
2022/11/17 01:18:03;;;;;;;19.20;8.00;;;16.50;99.90;;;;;;4994516;28;20497;-69
2022/11/17 01:21:14;;;;;;;23.27;7.68;;;16.50;99.90;;;;;;4994445;28;20378;-69
2022/11/17 01:24:17;;;;;;;24.95;7.47;;;16.50;99.90;;;;;;4994084;28;20041;-69
2022/11/17 01:27:22;;;;;;;24.38;7.07;;;16.50;99.90;;;;;;4994519;28;20038;-69
2022/11/17 01:30:26;;;;;;;23.10;7.43;;;16.50;99.90;;;;;;4994001;28;20655;-69
2022/11/17 01:33:30;;;;;;;17.77;6.72;;;16.50;99.90;;;;;;4994238;28;20037;-69
2022/11/17 01:40:00;;;;;;;25.52;7.97;;;16.40;99.90;;;;;;4994160;28;20062;-69
2022/11/17 01:43:10;;;;;;;22.30;7.82;;;16.40;99.90;;;;;;4993947;28;20061;-68
2022/11/17 01:46:32;;;;;;;21.98;8.43;;;16.40;99.90;;;;;;4993780;28;20062;-68
2022/11/17 01:49:35;;;;;;;;;;;16.30;99.90;;;;;;4994295;28;20046;-69
2022/11/17 01:52:40;;;;;;;20.23;9.70;;;16.30;99.90;;;;;;4993099;28;19909;-69
2022/11/17 01:55:53;;;;;;;23.48;10.02;;;16.30;99.90;;;;;;5004196;28;20049;-69
2022/11/17 01:59:06;;;;;;;27.65;10.20;;;16.30;99.90;;;;;;4993509;28;20057;-69
2022/11/17 02:02:10;;;;;;;25.55;10.23;;;16.30;99.90;;;;;;4993606;28;20505;-69
2022/11/17 02:05:21;;;;;;;21.27;9.18;;;16.30;99.90;;;;;;5004147;28;20115;-69
2022/11/17 02:08:29;;;;;;;20.55;8.55;;;16.20;99.90;;;;;;4992477;28;20046;-69
2022/11/17 02:11:34;;;;;;;17.67;8.90;;;16.20;99.90;;;;;;4993681;28;20041;-68
2022/11/17 02:14:39;;;;;;;23.45;9.68;;;16.20;99.90;;;;;;4993531;28;20049;-70
2022/11/17 02:17:43;;;;;;;26.63;9.70;;;16.20;99.90;;;;;;4992735;28;20068;-68
2022/11/17 02:21:04;;;;;;;30.33;9.95;;;16.10;99.90;;;;;;4993218;28;20046;-68
2022/11/17 02:24:17;;;;;;;16.70;8.30;;;16.10;99.90;;;;;;4993366;28;20052;-68
2022/11/17 02:27:53;;;;;;;29.63;8.45;;;16.10;99.90;;;;;;4992465;28;20053;-68
2022/11/17 02:31:34;;;;;;;26.15;8.73;;;16.10;99.90;;;;;;4990092;28;20437;-68
2022/11/17 02:35:18;;;;;;;27.67;9.18;;;16.10;99.90;;;;;;4992749;28;20049;-68
2022/11/17 02:38:49;;;;;;;19.73;9.30;;;16.10;99.90;;;;;;4993121;28;20045;-69
2022/11/17 02:42:15;;;;;;;17.25;8.73;;;16.00;99.90;;;;;;4993112;28;20038;-68
2022/11/17 02:45:28;;;;;;;20.65;10.10;;;15.90;99.90;;;;;;4992568;28;20061;-69
2022/11/17 02:48:39;;;;;;;24.73;10.45;;;15.90;99.90;;;;;;4992607;28;20057;-68
2022/11/17 02:51:44;;;;;;;27.88;10.23;;;15.90;99.90;;;;;;5003030;28;20516;-68
2022/11/17 02:54:48;;;;;;;19.38;9.18;;;15.80;99.90;;;;;;4992606;28;20501;-70
2022/11/17 02:57:55;;;;;;;18.45;8.68;;;15.80;99.90;;;;;;4991797;28;20049;-70
2022/11/17 03:01:25;;;;;;;18.80;7.93;;;15.80;99.90;;;;;;4992865;28;20045;-70
2022/11/17 03:04:45;;;;;;;18.77;8.57;;;15.70;99.90;;;;;;4992405;28;20117;-69
2022/11/17 03:08:13;;;;;;;20.30;9.73;;;15.60;99.90;;;;;;4992584;28;20541;-70
2022/11/17 03:11:22;;;;;;;21.42;9.93;;;15.50;99.90;;;;;;4992197;28;20410;-69
2022/11/17 03:14:38;;;;;;;23.52;10.02;;;15.50;99.90;;;;;;4992403;28;20053;-67
2022/11/17 03:18:03;;;;;;;16.55;9.27;;;15.50;99.90;;;;;;4992108;28;20050;-69
2022/11/17 03:21:18;;;;;;;18.20;9.23;;;15.50;99.90;;;;;;4992149;28;20073;-70
2022/11/17 03:24:32;;;;;;;15.95;8.95;;;15.50;99.90;;;;;;4992130;28;20073;-69
2022/11/17 03:27:42;;;;;;;19.33;9.00;;;15.50;99.90;;;;;;4991917;28;20050;-70
2022/11/17 03:30:49;;;;;;;17.15;9.32;;;15.50;99.90;;;;;;4991823;28;20061;-70
2022/11/17 03:33:54;;;;;;;16.98;9.40;;;15.50;99.90;;;;;;4991949;28;20048;-70
2022/11/17 03:37:02;;;;;;;18.98;8.73;;;15.50;99.90;;;;;;4991925;28;20061;-69
2022/11/17 03:40:17;;;;;;;15.73;8.73;;;15.40;99.90;;;;;;4992105;28;20042;-68
2022/11/17 03:43:24;;;;;;;15.43;7.82;;;15.50;99.90;;;;;;4991886;28;20042;-69
2022/11/17 03:46:29;;;;;;;16.23;7.68;;;15.40;99.90;;;;;;4991986;28;20045;-69
2022/11/17 03:50:02;;;;;;;9.98;7.05;;;15.40;99.90;;;;;;4992123;28;20053;-70
2022/11/17 03:53:06;;;;;;;17.48;7.10;;;15.30;99.90;;;;;;4991724;28;20042;-69
2022/11/17 03:56:47;;;;;;;14.43;7.82;;;15.30;99.90;;;;;;5002533;28;20073;-70
2022/11/17 04:00:13;;;;;;;11.40;6.13;;;15.30;99.90;;;;;;4991876;28;20046;-70
2022/11/17 04:03:19;;;;;;;11.18;6.07;;;15.20;99.90;;;;;;4991675;28;20049;-68
2022/11/17 04:06:24;;;;;;;11.43;7.50;;;15.10;99.90;;;;;;4991603;28;20114;-68
2022/11/17 04:09:27;;;;;;;11.13;6.63;;;15.10;99.90;;;;;;4994462;28;20041;-68
2022/11/17 04:15:57;;;;;;;8.48;5.75;;;15.00;99.90;;;;;;4995847;28;20061;-67
2022/11/17 04:19:01;;;;;;;14.45;6.10;;;15.00;99.90;;;;;;4996104;28;20041;-68
2022/11/17 04:22:05;;;;;;;19.30;7.43;;;15.00;99.90;;;;;;4995844;28;20489;-69
2022/11/17 04:28:35;;;;;;;11.20;5.60;;;15.10;99.90;;;;;;4995340;28;20045;-69
2022/11/17 04:28:36;;;;;;;12.73;5.45;;;15.00;99.90;;;;;;4995246;28;20053;-68
2022/11/17 04:31:41;;;;;;;15.85;6.03;;;15.00;99.90;;;;;;4995460;28;20042;-68
2022/11/17 04:34:45;;;;;;;11.57;5.78;;;15.00;99.90;;;;;;4994974;28;20053;-70
2022/11/17 04:37:49;;;;;;;13.23;6.18;;;15.00;99.90;;;;;;4995365;28;20053;-70
2022/11/17 04:44:24;;;;;;;12.15;5.88;;;14.90;99.90;;;;;;4994896;28;20049;-69
2022/11/17 04:47:28;;;;;;;15.70;6.65;;;14.80;99.90;;;;;;4995175;28;20041;-70
2022/11/17 04:50:33;;;;;;;16.23;6.03;;;14.80;99.90;;;;;;4995129;28;20100;-67
2022/11/17 04:53:37;;;;;;;14.60;5.93;;;14.80;99.90;;;;;;4994208;28;20065;-69
2022/11/17 04:56:40;;;;;;;13.85;6.18;;;14.90;99.90;;;;;;4994763;28;20125;-69
2022/11/17 04:59:44;;;;;;;19.08;5.97;;;14.90;99.90;;;;;;4994805;28;20110;-69
2022/11/17 05:02:49;;;;;;;15.38;6.25;;;14.80;99.90;;;;;;4995051;28;20064;-70
2022/11/17 05:05:52;;;;;;;14.57;6.72;;;14.70;99.90;;;;;;4994971;28;20046;-69
2022/11/17 05:08:58;;;;;;;14.18;6.35;;;14.70;99.90;;;;;;4994635;28;20045;-70
2022/11/17 05:17:03;;;;;;;14.10;6.10;;;14.80;99.90;;;;;;4994421;28;20053;-69
2022/11/17 05:18:48;;;;;;;19.20;6.75;;;14.70;99.90;;;;;;4994712;28;20050;-70
2022/11/17 05:21:53;;;;;;;19.27;6.20;;;14.70;99.90;;;;;;4994040;28;20139;-69
2022/11/17 05:24:57;;;;;;;12.40;5.10;;;14.80;99.90;;;;;;4994349;28;20509;-70
2022/11/17 05:28:01;;;;;;;13.88;5.65;;;14.80;99.90;;;;;;4994516;28;20185;-70
2022/11/17 05:31:05;;;;;;;13.73;5.55;;;14.80;99.90;;;;;;4994003;28;20061;-69
2022/11/17 05:34:11;;;;;;;14.10;5.78;;;14.70;99.90;;;;;;4994259;28;20529;-70
2022/11/17 05:37:15;;;;;;;13.73;7.82;;;14.60;99.90;;;;;;4993887;28;20053;-69
2022/11/17 05:40:19;;;;;;;17.48;6.47;;;14.60;99.90;;;;;;4994302;28;20049;-69
2022/11/17 05:43:23;;;;;;;14.20;7.50;;;14.50;99.90;;;;;;4993952;28;20397;-70
2022/11/17 05:46:27;;;;;;;13.60;6.30;;;14.40;99.90;;;;;;4993681;28;20042;-70
2022/11/17 05:49:31;;;;;;;10.95;5.85;;;14.40;99.90;;;;;;4993781;28;20130;-69
2022/11/17 05:52:36;;;;;;;20.77;6.25;;;14.40;99.90;;;;;;4993015;28;20218;-70
2022/11/17 05:55:40;;;;;;;15.93;9.75;;;14.50;99.90;;;;;;4993695;28;20205;-70
2022/11/17 05:58:47;;;;;;;19.15;8.63;;;14.50;99.90;;;;;;4993780;28;20045;-69
2022/11/17 06:02:03;;;;;;;12.93;6.80;;;14.50;99.90;;;;;;4993901;28;20045;-70
2022/11/17 06:05:08;;;;;;;14.55;6.93;;;14.40;99.90;;;;;;5004292;28;20073;-70
2022/11/17 06:08:12;;;;;;;16.85;7.30;;;14.50;99.90;;;;;;5003867;28;20037;-70
2022/11/17 06:11:17;;;;;;;21.73;7.65;;;14.40;99.90;;;;;;4993701;28;20049;-70
2022/11/17 06:14:21;;;;;;;16.85;8.00;;;14.40;99.90;;;;;;4993090;28;20041;-69
2022/11/17 06:17:37;;;;;;;17.05;8.02;;;14.40;99.90;;;;;;4993317;28;20465;-69
2022/11/17 06:20:47;;;;;;;17.80;8.50;;;14.50;99.90;;;;;;4992286;28;20042;-69
2022/11/17 06:23:51;;;;;;;20.20;7.72;;;14.50;99.90;;;;;;4993183;28;20050;-69
2022/11/17 06:26:55;;;;;;;18.92;8.32;;;14.60;99.90;;;;;;4993395;28;20049;-69
2022/11/17 06:30:02;;;;;;;22.35;7.70;;;14.60;99.90;;;;;;5003373;28;20398;-69
2022/11/17 06:33:13;;;;;;;17.55;7.05;;;14.60;99.90;;;;;;4992196;28;20049;-69
2022/11/17 06:36:16;;;;;;;17.02;8.75;;;14.70;99.90;;;;;;4992993;28;20050;-69
2022/11/17 06:39:23;;;;;;;19.40;8.95;;;14.60;99.90;;;;;;4993124;28;20041;-69
2022/11/17 06:45:50;;;;;;;15.38;7.93;;;14.70;99.90;;;;;;4992786;28;20054;-69
2022/11/17 06:48:54;;;;;;;23.35;8.63;;;14.70;99.90;;;;;;4992651;28;20049;-69
2022/11/17 06:51:58;;;;;;;15.75;7.78;;;14.70;99.90;;;;;;4992854;28;20046;-70
2022/11/17 06:55:02;;;;;;;15.93;8.65;;;14.90;99.90;;;;;;4992634;28;20073;-70
2022/11/17 06:58:10;;;;;;;20.40;9.05;;;15.00;99.90;;;;;;4991541;28;20053;-70
2022/11/17 07:01:15;;;;;;;24.25;8.27;;;15.10;99.90;;;;;;4992849;28;20215;-70
2022/11/17 07:04:19;;;;;;;27.90;13.57;;;15.20;99.90;;;;;;4992416;28;20057;-70
2022/11/17 07:07:23;;;;;;;26.85;12.90;;;15.30;99.90;;;;;;4992816;28;20037;-69
2022/11/17 07:10:29;;;;;;;28.80;11.50;;;15.30;99.90;;;;;;4992818;28;20073;-69
2022/11/17 07:13:34;;;;;;;25.77;13.32;;;15.30;99.90;;;;;;5002718;28;20045;-69
2022/11/17 07:16:41;;;;;;;29.67;10.35;;;15.20;99.90;;;;;;4992333;28;20401;-68
2022/11/17 07:19:45;;;;;;;27.35;11.13;;;15.30;99.90;;;;;;4991965;28;20049;-68
2022/11/17 07:22:49;;;;;;;19.00;10.55;;;15.30;99.90;;;;;;4991328;28;20053;-67
2022/11/17 07:25:53;;;;;;;26.27;10.75;;;15.40;99.90;;;;;;4992367;28;20064;-67
2022/11/17 07:28:57;;;;;;;30.98;14.45;;;15.50;99.90;;;;;;4991996;28;20049;-68
2022/11/17 07:32:01;;;;;;;27.38;12.50;;;15.60;99.90;;;;;;4991989;28;20514;-68
2022/11/17 07:35:06;;;;;;;31.38;13.43;;;15.60;99.90;;;;;;4992098;28;20585;-68
2022/11/17 07:38:10;;;;;;;28.70;12.88;;;15.70;99.90;;;;;;4991953;28;20061;-69
2022/11/17 07:41:14;;;;;;;25.40;11.55;;;15.70;99.90;;;;;;4991957;28;20505;-68
2022/11/17 07:44:18;;;;;;;18.08;10.30;;;15.90;99.90;;;;;;4991264;28;20049;-69
2022/11/17 07:47:21;;;;;;;18.60;11.63;;;16.20;99.90;;;;;;4991720;28;20042;-69
2022/11/17 07:50:26;;;;;;;19.75;11.63;;;16.60;99.90;;;;;;4991871;28;20065;-67
2022/11/17 07:53:32;;;;;;;23.83;10.85;;;17.10;99.90;;;;;;5001911;28;20053;-67
2022/11/17 07:56:35;;;;;;;19.83;9.07;;;17.50;99.90;;;;;;4991840;28;20077;-68
2022/11/17 07:59:40;;;;;;;17.60;9.18;;;17.80;99.90;;;;;;4991835;28;20049;-68
2022/11/17 08:02:43;;;;;;;22.77;10.73;;;18.10;99.90;;;;;;4991792;28;20132;-67
2022/11/17 08:05:47;;;;;;;18.38;9.20;;;18.30;99.90;;;;;;4991823;28;20517;-69
2022/11/17 08:08:52;;;;;;;19.90;9.30;;;18.40;99.90;;;;;;4991520;28;20594;-67
2022/11/17 08:11:58;;;;;;;16.48;8.70;;;18.40;99.90;;;;;;4991497;28;20041;-68
2022/11/17 08:15:02;;;;;;;14.18;8.35;;;18.50;99.90;;;;;;4990718;28;20054;-66
2022/11/17 08:18:06;;;;;;;23.38;9.00;;;18.60;99.90;;;;;;4991669;28;20061;-67
2022/11/17 08:21:13;;;;;;;16.10;8.32;;;18.70;99.90;;;;;;4991618;28;20053;-67
2022/11/17 08:24:17;;;;;;;14.02;7.45;;;18.80;99.90;;;;;;4991448;28;20045;-67
2022/11/17 08:27:21;;;;;;;18.58;7.20;;;19.00;99.90;;;;;;4989544;28;20049;-67
2022/11/17 08:30:29;;;;;;;12.32;5.97;;;19.00;99.90;;;;;;4990086;28;20069;-68
2022/11/17 08:33:33;;;;;;;13.73;5.90;;;19.30;99.90;;;;;;4991110;28;20489;-67
2022/11/17 08:36:37;;;;;;;10.95;4.88;;;19.50;99.90;;;;;;4991315;28;20057;-67
2022/11/17 08:39:41;;;;;;;16.00;5.45;;;19.60;99.90;;;;;;4991515;28;20118;-67
2022/11/17 08:42:45;;;;;;;13.30;4.47;;;19.80;99.90;;;;;;5001788;28;20049;-69
2022/11/17 08:45:50;;;;;;;12.48;4.65;;;19.80;99.90;;;;;;4991036;28;20378;-68
2022/11/17 08:48:54;;;;;;;13.73;4.25;;;20.00;99.90;;;;;;4991319;28;20065;-69
2022/11/17 08:51:58;;;;;;;15.75;4.55;;;20.20;99.90;;;;;;4991430;28;20042;-68
2022/11/17 08:55:04;;;;;;;22.60;5.32;;;20.40;99.90;;;;;;4991969;28;20504;-70
2022/11/17 08:58:09;;;;;;;13.25;4.38;;;20.50;99.90;;;;;;4995621;28;20065;-70
2022/11/17 09:01:14;;;;;;;13.55;3.00;;;20.60;99.90;;;;;;4995532;28;20045;-70
2022/11/17 09:04:19;;;;;;;11.35;3.47;;;20.80;99.90;;;;;;4995474;28;20053;-71
2022/11/17 09:07:23;;;;;;;11.70;3.17;;;20.90;99.90;;;;;;4995402;28;20041;-71
2022/11/17 09:10:27;;;;;;;10.00;2.40;;;21.10;99.90;;;;;;4995533;28;20077;-71
2022/11/17 09:13:32;;;;;;;10.13;2.67;;;21.30;99.90;;;;;;4995499;28;20049;-71
2022/11/17 09:16:36;;;;;;;16.35;3.53;;;21.40;99.90;;;;;;4995606;28;20061;-72
2022/11/17 09:19:40;;;;;;;11.05;2.20;;;21.60;99.90;;;;;;4995189;28;20049;-70
2022/11/17 09:22:45;;;;;;;15.10;2.58;;;21.80;99.90;;;;;;4995304;28;20065;-69
2022/11/17 09:25:49;;;;;;;8.95;1.95;;;21.90;99.90;;;;;;4995691;28;20148;-70
2022/11/17 09:28:53;;;;;;;9.65;2.08;;;22.00;99.90;;;;;;4998133;28;20053;-71
2022/11/17 09:31:57;;;;;;;15.35;2.75;;;22.10;99.90;;;;;;4996098;28;20504;-68
2022/11/17 09:35:05;;;;;;;10.65;2.22;;;22.20;99.70;;;;;;4994787;28;20054;-69
2022/11/17 09:38:10;;;;;;;8.90;2.67;;;22.30;99.50;;;;;;5005827;28;20057;-69
2022/11/17 09:41:15;;;;;;;12.15;3.08;;;22.40;99.30;;;;;;4994953;28;20042;-69
2022/11/17 09:44:40;;;;;;;15.25;2.63;;;22.40;99.50;;;;;;4994945;28;20045;-70
2022/11/17 09:48:08;;;;;;;8.13;1.95;;;22.40;98.10;;;;;;4994911;28;20037;-71
2022/11/17 09:51:17;;;;;;;9.60;1.80;;;22.50;98.10;;;;;;4994549;28;20049;-71
2022/11/17 09:54:57;;;;;;;15.45;2.58;;;22.50;97.90;;;;;;4996655;28;20078;-71
2022/11/17 09:58:21;;;;;;;14.05;2.70;;;22.50;98.00;;;;;;4991596;28;20181;-70
2022/11/17 10:01:27;;;;;;;8.75;2.47;;;22.50;97.30;;;;;;4998650;28;20057;-72
2022/11/17 10:04:33;;;;;;;8.90;2.15;;;22.30;97.40;;;;;;4997547;28;20074;-71
2022/11/17 10:07:41;;;;;;;8.35;2.45;;;22.40;97.90;;;;;;4996048;28;20046;-71
2022/11/17 10:10:48;;;;;;;12.85;2.40;;;22.50;98.00;;;;;;4997195;28;20053;-73
2022/11/17 10:13:52;;;;;;;13.45;3.72;;;22.60;98.30;;;;;;4997393;28;20049;-71
2022/11/17 10:16:58;;;;;;;9.15;1.95;;;22.60;97.80;;;;;;4994328;28;20513;-70
2022/11/17 10:20:14;;;;;;;14.80;2.45;;;22.60;97.70;;;;;;4994357;28;20053;-72
2022/11/17 10:23:20;;;;;;;14.68;3.08;;;22.50;97.90;;;;;;4994464;28;20041;-69
2022/11/17 10:26:24;;;;;;;15.93;3.00;;;22.20;98.30;;;;;;4993817;28;20045;-69
2022/11/17 10:29:29;;;;;;;25.75;4.13;;;22.00;98.60;;;;;;4993002;28;20049;-69
2022/11/17 10:32:45;;;;;;;19.05;5.20;;;21.90;99.20;;;;;;4992609;28;20065;-71
2022/11/17 10:35:55;;;;;;;23.52;5.55;;;22.10;99.60;;;;;;4993631;28;20069;-70
2022/11/17 10:38:59;;;;;;;24.17;5.53;;;22.20;99.70;;;;;;4993085;28;20072;-69
2022/11/17 10:42:21;;;;;;;19.10;5.13;;;22.10;99.70;;;;;;5003638;28;20402;-70
2022/11/17 10:45:25;;;;;;;14.02;3.75;;;21.90;99.80;;;;;;4992757;28;20118;-70
2022/11/17 10:48:36;;;;;;;12.55;2.67;;;21.80;99.90;;;;;;4992104;28;20045;-69
2022/11/17 10:51:40;;;;;;;21.83;3.77;;;21.60;99.90;;;;;;4993251;28;20049;-68
2022/11/17 10:54:44;;;;;;;11.02;2.90;;;21.50;99.90;;;;;;4993746;28;20045;-70
2022/11/17 10:57:59;;;;;;;11.02;3.03;;;21.40;99.90;;;;;;4993597;28;20057;-70
2022/11/17 11:01:04;;;;;;;13.70;5.45;;;21.30;99.90;;;;;;4993810;28;20053;-70
2022/11/17 11:04:32;;;;;;;14.95;3.38;;;21.20;99.90;;;;;;4994110;28;20061;-70
2022/11/17 11:07:36;;;;;;;13.35;3.28;;;21.30;99.90;;;;;;4993207;28;20409;-72
2022/11/17 11:10:42;;;;;;;11.88;3.13;;;21.40;99.90;;;;;;4994432;28;20045;-72
2022/11/17 11:14:00;;;;;;;23.75;3.38;;;21.50;99.90;;;;;;4992618;28;20520;-68
2022/11/17 11:17:10;;;;;;;11.02;3.17;;;21.50;99.90;;;;;;4992412;28;20050;-69
2022/11/17 11:20:20;;;;;;;15.10;3.53;;;21.50;99.90;;;;;;4993001;28;20057;-71
2022/11/17 11:23:43;;;;;;;14.80;3.40;;;21.50;99.90;;;;;;4992381;28;20045;-69
2022/11/17 11:27:05;;;;;;;9.23;3.00;;;21.50;99.90;;;;;;4992606;28;20042;-69
2022/11/17 11:30:11;;;;;;;15.82;3.45;;;21.60;99.90;;;;;;4994500;28;20077;-73
2022/11/17 11:33:24;;;;;;;12.20;2.75;;;21.60;99.90;;;;;;4993098;28;20045;-70
2022/11/17 11:36:41;;;;;;;15.80;3.63;;;21.60;99.90;;;;;;4992544;28;20053;-70
2022/11/17 11:39:45;;;;;;;12.63;3.05;;;21.50;99.90;;;;;;4992222;28;20045;-71
2022/11/17 11:43:08;;;;;;;11.52;3.08;;;21.50;99.90;;;;;;4992192;28;20390;-70
2022/11/17 11:46:40;;;;;;;8.80;2.55;;;21.40;99.90;;;;;;4992921;28;20061;-71
2022/11/17 11:49:53;;;;;;;8.85;2.58;;;21.40;99.90;;;;;;4992162;28;20045;-71
2022/11/17 11:53:12;;;;;;;19.42;3.75;;;21.30;99.90;;;;;;4992601;28;20045;-71
2022/11/17 11:56:31;;;;;;;7.43;2.60;;;21.30;99.90;;;;;;4992089;28;20053;-71
2022/11/17 12:00:00;;;;;;;14.43;3.05;;;21.10;99.90;;;;;;4992078;28;20057;-70
2022/11/17 12:03:12;;;;;;;7.63;2.42;;;21.00;99.90;;;;;;4992072;28;20049;-71
2022/11/17 12:10:03;;;;;;;8.70;2.97;;;20.90;99.90;;;;;;4991209;28;20050;-70
2022/11/17 12:13:12;;;;;;;8.68;2.90;;;20.90;99.90;;;;;;4991180;28;20362;-70
2022/11/17 12:16:29;;;;;;;9.40;2.70;;;20.80;99.90;;;;;;4991390;28;20053;-71
2022/11/17 12:19:54;;;;;;;7.00;2.80;;;20.70;99.90;;;;;;4993049;28;20047;-71
2022/11/17 12:23:24;;;;;;;11.52;3.05;;;20.70;99.90;;;;;;4993790;28;20045;-71
2022/11/17 12:26:31;;;;;;;13.95;3.50;;;20.60;99.90;;;;;;4992414;28;20505;-72
2022/11/17 12:29:45;;;;;;;11.10;3.03;;;20.50;99.90;;;;;;5003553;28;20429;-72
2022/11/17 12:32:51;;;;;;;9.07;2.85;;;20.50;99.90;;;;;;5006365;28;20053;-70
2022/11/17 12:36:30;;;;;;;12.25;5.10;;;20.40;99.90;;;;;;4995860;28;20052;-70
2022/11/17 12:39:49;;;;;;;13.43;4.18;;;20.50;99.90;;;;;;4995994;28;20057;-70
2022/11/17 12:43:33;;;;;;;7.90;2.78;;;20.50;99.90;;;;;;4995240;28;20045;-70
2022/11/17 12:46:37;;;;;;;8.15;2.90;;;20.50;99.90;;;;;;4973585;28;20061;-70
2022/11/17 12:50:02;;;;;;;9.35;2.80;;;20.60;99.90;;;;;;4974393;28;20066;-71
2022/11/17 12:53:36;;;;;;;12.18;2.88;;;20.60;99.90;;;;;;4997585;28;20050;-71
2022/11/17 12:56:52;;;;;;;20.73;4.50;;;20.60;99.90;;;;;;4995129;28;20053;-70
2022/11/17 13:00:09;;;;;;;7.68;2.42;;;20.60;99.90;;;;;;4994764;28;20045;-70
2022/11/17 13:03:21;;;;;;;8.45;2.80;;;20.60;99.70;;;;;;4996001;28;20072;-69
2022/11/17 13:06:25;;;;;;;8.50;2.63;;;20.70;99.40;;;;;;4995600;28;20053;-71
2022/11/17 13:09:32;;;;;;;10.18;3.65;;;20.70;98.70;;;;;;4996075;28;20398;-70
2022/11/17 13:12:36;;;;;;;4.85;2.42;;;20.70;98.30;;;;;;4995151;28;20046;-70
2022/11/17 13:15:41;;;;;;;10.68;2.72;;;20.60;98.10;;;;;;4995349;28;20057;-70
2022/11/17 13:18:47;;;;;;;12.05;3.42;;;20.70;98.20;;;;;;4997808;28;20053;-72
2022/11/17 13:21:58;;;;;;;11.05;2.67;;;20.60;98.10;;;;;;4997335;28;20041;-73
2022/11/17 13:25:21;;;;;;;11.45;2.55;;;20.60;98.30;;;;;;4998518;28;20042;-71
2022/11/17 13:28:31;;;;;;;12.32;3.22;;;20.60;98.30;;;;;;4993740;28;20508;-68
2022/11/17 13:31:36;;;;;;;12.27;3.10;;;20.60;98.40;;;;;;4996765;28;20066;-72
2022/11/17 13:34:49;;;;;;;8.00;2.75;;;20.60;98.40;;;;;;4995401;28;20049;-71
2022/11/17 13:38:25;;;;;;;10.43;3.33;;;20.60;98.40;;;;;;4996138;28;20061;-70
2022/11/17 13:41:36;;;;;;;8.80;2.85;;;20.60;98.30;;;;;;4989695;28;20037;-76
2022/11/17 13:44:40;;;;;;;;;;;20.40;98.10;;;;;;4996037;28;20046;-71
2022/11/17 13:47:48;;;;;;;9.23;2.75;;;20.50;98.10;;;;;;4997776;28;19909;-70
2022/11/17 13:50:53;;;;;;;5.30;2.17;;;20.40;97.00;;;;;;4994970;28;20042;-73
2022/11/17 13:54:05;;;;;;;7.40;2.60;;;20.40;97.10;;;;;;4998250;28;20049;-72
2022/11/17 13:57:25;;;;;;;6.75;2.60;;;20.40;97.10;;;;;;4997256;28;20520;-73
2022/11/17 14:00:31;;;;;;;8.88;2.08;;;20.30;97.10;;;;;;4996163;28;20057;-73
2022/11/17 14:03:41;;;;;;;4.63;2.00;;;20.20;97.20;;;;;;4996816;28;20054;-73
2022/11/17 14:06:59;;;;;;;8.05;2.08;;;20.20;97.30;;;;;;4996893;28;20045;-73
2022/11/17 14:10:19;;;;;;;7.63;2.20;;;20.20;97.60;;;;;;4997537;28;20037;-73
2022/11/17 14:13:28;;;;;;;6.38;1.80;;;20.10;97.50;;;;;;4996880;28;20057;-73
2022/11/17 14:16:39;;;;;;;8.10;1.58;;;20.10;97.50;;;;;;4996530;28;20041;-72
2022/11/17 14:19:44;;;;;;;5.30;1.83;;;20.10;96.90;;;;;;4996364;28;20536;-72
2022/11/17 14:23:16;;;;;;;7.13;1.85;;;20.00;96.40;;;;;;4995034;28;20041;-72
2022/11/17 14:26:23;;;;;;;5.10;1.65;;;20.00;96.70;;;;;;4996501;28;20045;-73
2022/11/17 14:29:30;;;;;;;8.82;2.17;;;20.00;97.00;;;;;;4997749;28;20045;-73
2022/11/17 14:32:34;;;;;;;10.10;1.90;;;20.00;97.10;;;;;;4995106;28;20054;-74
2022/11/17 14:35:38;;;;;;;12.25;2.40;;;20.00;97.20;;;;;;4998287;28;20053;-73
2022/11/17 14:38:46;;;;;;;10.57;4.30;;;19.90;97.50;;;;;;5004460;28;20057;-73
2022/11/17 14:41:50;;;;;;;7.55;2.53;;;19.90;97.90;;;;;;4995836;28;20057;-73
2022/11/17 14:44:54;;;;;;;10.40;2.22;;;19.90;98.20;;;;;;4995889;28;20053;-73
2022/11/17 14:47:59;;;;;;;6.97;2.28;;;19.80;98.30;;;;;;4993455;28;20050;-71
2022/11/17 14:51:03;;;;;;;5.75;1.80;;;19.80;98.20;;;;;;4994192;28;20053;-72
2022/11/17 14:54:07;;;;;;;12.15;2.75;;;19.80;98.50;;;;;;4992370;28;20045;-72
2022/11/17 14:57:10;;;;;;;11.75;2.80;;;19.70;98.30;;;;;;4992305;28;20553;-70
2022/11/17 15:00:16;;;;;;;10.35;2.50;;;19.70;98.30;;;;;;4992634;28;20041;-71
2022/11/17 15:03:20;;;;;;;20.33;2.78;;;19.60;98.50;;;;;;4992404;28;20058;-70
2022/11/17 15:06:25;;;;;;;10.38;2.60;;;19.70;98.80;;;;;;4992187;28;20045;-70
2022/11/17 15:09:29;;;;;;;14.05;3.40;;;19.60;98.80;;;;;;4992484;28;20045;-68
2022/11/17 15:12:33;;;;;;;9.23;3.53;;;19.50;98.90;;;;;;4992289;28;20424;-70
2022/11/17 15:15:38;;;;;;;19.60;3.88;;;19.50;99.10;;;;;;4992435;28;20504;-72
2022/11/17 15:19:01;;;;;;;12.93;3.42;;;19.40;99.30;;;;;;4990811;28;20093;-70
2022/11/17 15:22:05;;;;;;;14.07;3.58;;;19.30;99.30;;;;;;4992328;28;20037;-71
2022/11/17 15:25:09;;;;;;;18.02;3.92;;;19.30;99.70;;;;;;4991851;28;20045;-70
2022/11/17 15:28:14;;;;;;;16.65;3.67;;;19.30;99.90;;;;;;4991865;28;20505;-70
2022/11/17 15:31:19;;;;;;;21.60;5.25;;;19.20;99.90;;;;;;4991398;28;20405;-72
2022/11/17 15:34:23;;;;;;;11.25;4.30;;;19.20;99.90;;;;;;4991582;28;20049;-70
2022/11/17 15:37:27;;;;;;;27.98;5.25;;;19.10;99.90;;;;;;4990519;28;20516;-70
2022/11/17 15:40:31;;;;;;;18.38;3.90;;;19.10;99.90;;;;;;4991850;28;20041;-71
2022/11/17 15:43:37;;;;;;;17.40;4.80;;;19.10;99.90;;;;;;4991261;28;20504;-73
2022/11/17 15:46:42;;;;;;;21.52;5.30;;;19.00;99.90;;;;;;4991649;28;20426;-70
2022/11/17 15:49:45;;;;;;;28.08;6.85;;;18.90;99.90;;;;;;4991445;28;20045;-69
2022/11/17 15:52:50;;;;;;;31.77;5.90;;;18.90;99.90;;;;;;4990808;28;20100;-70
2022/11/17 15:55:54;;;;;;;23.77;5.38;;;18.80;99.90;;;;;;4991682;28;20390;-72
2022/11/17 15:59:03;;;;;;;28.13;5.90;;;18.70;99.90;;;;;;4991380;28;20114;-70
2022/11/17 16:02:08;;;;;;;23.63;6.25;;;18.70;99.90;;;;;;4991293;28;20061;-69
2022/11/17 16:05:12;;;;;;;27.80;6.68;;;18.60;99.90;;;;;;4996497;28;20049;-70
2022/11/17 16:08:16;;;;;;;17.13;6.30;;;18.60;99.90;;;;;;4997875;28;20049;-69
2022/11/17 16:11:20;;;;;;;35.63;6.75;;;18.60;99.90;;;;;;4997946;28;20077;-69
2022/11/17 16:14:24;;;;;;;35.53;6.57;;;18.50;99.90;;;;;;4998092;28;20106;-71
2022/11/17 16:17:28;;;;;;;29.33;6.43;;;18.50;99.90;;;;;;4997604;28;20049;-71
2022/11/17 16:20:33;;;;;;;43.38;8.77;;;18.50;99.90;;;;;;4996552;28;20505;-72
2022/11/17 16:23:45;;;;;;;24.00;6.70;;;18.50;99.90;;;;;;4997686;28;20054;-73
2022/11/17 16:26:50;;;;;;;32.45;6.90;;;18.40;99.90;;;;;;4997251;28;20041;-72
2022/11/17 16:29:54;;;;;;;30.83;6.88;;;18.50;99.90;;;;;;4997684;28;20077;-73
2022/11/17 16:32:58;;;;;;;27.20;6.35;;;18.50;99.90;;;;;;4997794;28;20089;-72
2022/11/17 16:36:05;;;;;;;21.27;6.88;;;18.40;99.90;;;;;;4997558;28;20476;-72
2022/11/17 16:39:13;;;;;;;20.80;7.47;;;18.40;99.90;;;;;;4996639;28;20053;-72
2022/11/17 16:42:18;;;;;;;39.58;7.47;;;18.40;99.90;;;;;;4997498;28;20642;-73
2022/11/17 16:45:21;;;;;;;27.05;8.20;;;18.30;99.90;;;;;;4997742;28;20053;-72
2022/11/17 16:48:25;;;;;;;26.60;8.43;;;18.30;99.90;;;;;;4997661;28;20045;-71